Hancock County-Bar Harbor Airport Bar Harbor US
ICAO: KBHB
IATA: BHB
Category: Medium
Scheduled Services: Yes

Elevation: 83 ft
TransAlt. 18000 ft.

Airport Communications:
BANGOR APP/DEP:124.5
AWOS 3:118.025
CLNC DEL:119.9
CTAF/UNICOM:123

KBHB Zoom In..

Runways:

(A) RW 04 length 5200 ft width 100 ft
---- / hdg 44

(B) RW 17 length 3253 ft width 75 ft
---- / hdg 169

(C) RW 22 length 5200 ft width 100 ft
ILS 108.30 / hdg 224

(D) RW 35 length 3253 ft width 75 ft
---- / hdg 349

Location; KBHB
Day. 20 / Time. 17.16 Zulu
* Altimeter: 29.78
* Temperature: 16° c. 60.8°f.
* Wind from: 210° Speed 05 kn.
Dewpoint: 14° c.
Visibility: 10 Statute Miles.
Clouds: Scattered 600 ft.
Clouds: Scattered 1200 ft.
Clouds: Overcast 6500 ft.
Conditions: Light Rain.

KBHB 201716Z AUTO 21005KT 10SM -RA SCT006 SCT012 OVC065 16/14 A2978 RMK AO2 RAB05 P0000 $


Wind From 210°
Speed 05 kn.

 
 
jpsmedia.com for Web Design SOUNDCLOUD worldairports.se 2018   terms of use